Taldom, Russia
Current Conditions -  °F | °C
As of 12:30 PM on Thursday 27 Nov 2014 (Local Time) from UUEE Reporting Station
Haze Haze  
Wind Chill: 13°   Ceiling: 700
Heat Index: 21°   Visibility: 2.5mi
Dew Point: 19°   Wind: 7mph
Humidity: 93%   Direction: 220°SW
Pressure: 30.48"   Gusts: NA
Location:  56.73°N, 37.53°E
Report Text: UUEE 270930Z 22003MPS 4000 BR OVC007 M06/M07 Q1032 7512014525120151 NOSIG
Loading
Personal Weather Stations






























Interactive Weather Map New forecast layout! Learn more

10-Day Weather Forecast

Advertisements
Track Severe Weather on mobile